sensor_id;sensor_type;location;lat;lon;timestamp;temperature;humidity
70421;SHT31;57848;51.938;15.520;2023-02-15T00:01:30;1.56;88.13
70421;SHT31;57848;51.938;15.520;2023-02-15T00:03:55;1.52;88.17
70421;SHT31;57848;51.938;15.520;2023-02-15T00:06:21;1.56;88.02
70421;SHT31;57848;51.938;15.520;2023-02-15T00:08:46;1.56;88.22
70421;SHT31;57848;51.938;15.520;2023-02-15T00:11:14;1.52;88.29
70421;SHT31;57848;51.938;15.520;2023-02-15T00:13:40;1.61;88.25
70421;SHT31;57848;51.938;15.520;2023-02-15T00:16:12;1.56;88.37
70421;SHT31;57848;51.938;15.520;2023-02-15T00:18:39;1.56;88.27
70421;SHT31;57848;51.938;15.520;2023-02-15T00:21:09;1.56;88.27
70421;SHT31;57848;51.938;15.520;2023-02-15T00:23:35;1.55;88.42
70421;SHT31;57848;51.938;15.520;2023-02-15T00:26:09;1.52;88.33
70421;SHT31;57848;51.938;15.520;2023-02-15T00:28:35;1.58;88.37
70421;SHT31;57848;51.938;15.520;2023-02-15T00:31:09;1.54;88.42
70421;SHT31;57848;51.938;15.520;2023-02-15T00:33:36;1.52;88.41
70421;SHT31;57848;51.938;15.520;2023-02-15T00:36:04;1.52;88.55
70421;SHT31;57848;51.938;15.520;2023-02-15T00:38:30;1.54;88.44
70421;SHT31;57848;51.938;15.520;2023-02-15T00:40:57;1.54;88.34
70421;SHT31;57848;51.938;15.520;2023-02-15T00:43:24;1.50;88.72
70421;SHT31;57848;51.938;15.520;2023-02-15T00:45:49;1.50;88.42
70421;SHT31;57848;51.938;15.520;2023-02-15T00:48:15;1.55;88.36
70421;SHT31;57848;51.938;15.520;2023-02-15T00:50:40;1.55;88.55
70421;SHT31;57848;51.938;15.520;2023-02-15T00:53:06;1.51;88.49
70421;SHT31;57848;51.938;15.520;2023-02-15T00:55:31;1.52;88.43
70421;SHT31;57848;51.938;15.520;2023-02-15T00:57:57;1.47;88.65
70421;SHT31;57848;51.938;15.520;2023-02-15T01:00:22;1.43;88.66
70421;SHT31;57848;51.938;15.520;2023-02-15T01:02:48;1.37;88.87
70421;SHT31;57848;51.938;15.520;2023-02-15T01:05:13;1.43;88.63
70421;SHT31;57848;51.938;15.520;2023-02-15T01:07:39;1.40;88.80
70421;SHT31;57848;51.938;15.520;2023-02-15T01:10:06;1.37;88.77
70421;SHT31;57848;51.938;15.520;2023-02-15T01:12:32;1.37;88.74
70421;SHT31;57848;51.938;15.520;2023-02-15T01:14:57;1.40;88.65
70421;SHT31;57848;51.938;15.520;2023-02-15T01:17:24;1.38;88.64
70421;SHT31;57848;51.938;15.520;2023-02-15T01:19:49;1.35;88.70
70421;SHT31;57848;51.938;15.520;2023-02-15T01:22:18;1.38;88.72
70421;SHT31;57848;51.938;15.520;2023-02-15T01:24:44;1.37;88.66
70421;SHT31;57848;51.938;15.520;2023-02-15T01:27:09;1.34;88.53
70421;SHT31;57848;51.938;15.520;2023-02-15T01:29:35;1.34;88.67
70421;SHT31;57848;51.938;15.520;2023-02-15T01:32:00;1.33;88.53
70421;SHT31;57848;51.938;15.520;2023-02-15T01:34:25;1.30;88.60
70421;SHT31;57848;51.938;15.520;2023-02-15T01:36:51;1.28;88.75
70421;SHT31;57848;51.938;15.520;2023-02-15T01:39:16;1.30;88.66
70421;SHT31;57848;51.938;15.520;2023-02-15T01:41:41;1.28;88.61
70421;SHT31;57848;51.938;15.520;2023-02-15T01:47:16;1.26;88.55
70421;SHT31;57848;51.938;15.520;2023-02-15T01:49:44;1.23;88.83
70421;SHT31;57848;51.938;15.520;2023-02-15T01:52:12;1.22;88.78
70421;SHT31;57848;51.938;15.520;2023-02-15T01:54:40;1.17;88.91
70421;SHT31;57848;51.938;15.520;2023-02-15T01:57:10;1.22;88.90
70421;SHT31;57848;51.938;15.520;2023-02-15T01:59:39;1.19;88.80
70421;SHT31;57848;51.938;15.520;2023-02-15T02:02:07;1.14;88.96
70421;SHT31;57848;51.938;15.520;2023-02-15T02:04:48;1.10;89.07
70421;SHT31;57848;51.938;15.520;2023-02-15T02:07:20;1.10;89.09
70421;SHT31;57848;51.938;15.520;2023-02-15T02:09:47;1.12;89.00
70421;SHT31;57848;51.938;15.520;2023-02-15T02:12:13;1.08;89.19
70421;SHT31;57848;51.938;15.520;2023-02-15T02:14:39;1.04;89.25
70421;SHT31;57848;51.938;15.520;2023-02-15T02:30:53;0.94;89.45
70421;SHT31;57848;51.938;15.520;2023-02-15T02:35:59;0.89;89.65
70421;SHT31;57848;51.938;15.520;2023-02-15T02:39:20;0.89;89.73
70421;SHT31;57848;51.938;15.520;2023-02-15T02:41:34;0.79;89.91
70421;SHT31;57848;51.938;15.520;2023-02-15T02:44:12;0.82;89.89
70421;SHT31;57848;51.938;15.520;2023-02-15T02:46:51;0.83;89.81
70421;SHT31;57848;51.938;15.520;2023-02-15T02:52:01;0.77;90.00
70421;SHT31;57848;51.938;15.520;2023-02-15T02:54:28;0.82;89.93
70421;SHT31;57848;51.938;15.520;2023-02-15T02:56:55;0.76;90.08
70421;SHT31;57848;51.938;15.520;2023-02-15T02:59:29;0.69;90.21
70421;SHT31;57848;51.938;15.520;2023-02-15T03:02:10;0.76;90.19
70421;SHT31;57848;51.938;15.520;2023-02-15T03:04:42;0.80;89.91
70421;SHT31;57848;51.938;15.520;2023-02-15T03:07:14;0.68;90.28
70421;SHT31;57848;51.938;15.520;2023-02-15T03:09:45;0.73;90.19
70421;SHT31;57848;51.938;15.520;2023-02-15T03:12:20;0.68;90.25
70421;SHT31;57848;51.938;15.520;2023-02-15T03:14:50;0.68;90.31
70421;SHT31;57848;51.938;15.520;2023-02-15T03:17:19;0.69;90.25
70421;SHT31;57848;51.938;15.520;2023-02-15T03:19:47;0.68;90.21
70421;SHT31;57848;51.938;15.520;2023-02-15T03:22:23;0.61;90.43
70421;SHT31;57848;51.938;15.520;2023-02-15T03:25:00;0.58;90.67
70421;SHT31;57848;51.938;15.520;2023-02-15T03:27:31;0.56;90.64
70421;SHT31;57848;51.938;15.520;2023-02-15T03:30:02;0.58;90.73
70421;SHT31;57848;51.938;15.520;2023-02-15T03:32:30;0.56;90.73
70421;SHT31;57848;51.938;15.520;2023-02-15T03:34:56;0.51;90.97
70421;SHT31;57848;51.938;15.520;2023-02-15T03:37:50;0.48;91.02
70421;SHT31;57848;51.938;15.520;2023-02-15T03:40:23;0.52;90.95
70421;SHT31;57848;51.938;15.520;2023-02-15T03:43:18;0.52;90.76
70421;SHT31;57848;51.938;15.520;2023-02-15T03:45:49;0.42;91.13
70421;SHT31;57848;51.938;15.520;2023-02-15T03:48:27;0.46;90.95
70421;SHT31;57848;51.938;15.520;2023-02-15T03:50:57;0.48;90.99
70421;SHT31;57848;51.938;15.520;2023-02-15T03:53:42;0.44;91.20
70421;SHT31;57848;51.938;15.520;2023-02-15T03:56:08;0.41;91.16
70421;SHT31;57848;51.938;15.520;2023-02-15T03:58:34;0.48;91.04
70421;SHT31;57848;51.938;15.520;2023-02-15T04:01:29;0.35;91.18
70421;SHT31;57848;51.938;15.520;2023-02-15T04:04:18;0.38;91.36
70421;SHT31;57848;51.938;15.520;2023-02-15T04:06:44;0.40;91.31
70421;SHT31;57848;51.938;15.520;2023-02-15T04:09:09;0.37;91.20
70421;SHT31;57848;51.938;15.520;2023-02-15T04:11:53;0.34;91.30
70421;SHT31;57848;51.938;15.520;2023-02-15T04:14:18;0.35;91.31
70421;SHT31;57848;51.938;15.520;2023-02-15T04:17:05;0.32;91.20
70421;SHT31;57848;51.938;15.520;2023-02-15T04:19:31;0.28;91.49
70421;SHT31;57848;51.938;15.520;2023-02-15T04:22:15;0.26;91.35
70421;SHT31;57848;51.938;15.520;2023-02-15T04:24:58;0.24;91.55
70421;SHT31;57848;51.938;15.520;2023-02-15T04:27:44;0.17;91.64
70421;SHT31;57848;51.938;15.520;2023-02-15T04:30:10;0.18;91.63
70421;SHT31;57848;51.938;15.520;2023-02-15T04:32:36;0.14;91.79
70421;SHT31;57848;51.938;15.520;2023-02-15T04:35:03;0.13;91.84
70421;SHT31;57848;51.938;15.520;2023-02-15T04:37:29;0.11;91.83
70421;SHT31;57848;51.938;15.520;2023-02-15T04:39:54;0.13;91.94
70421;SHT31;57848;51.938;15.520;2023-02-15T04:42:19;0.05;92.16
70421;SHT31;57848;51.938;15.520;2023-02-15T04:44:45;0.05;92.16
70421;SHT31;57848;51.938;15.520;2023-02-15T04:47:10;0.04;92.16
70421;SHT31;57848;51.938;15.520;2023-02-15T04:49:36;0.05;92.12
70421;SHT31;57848;51.938;15.520;2023-02-15T04:52:01;0.04;92.19
70421;SHT31;57848;51.938;15.520;2023-02-15T04:54:26;0.04;92.24
70421;SHT31;57848;51.938;15.520;2023-02-15T04:56:52;0.00;92.37
70421;SHT31;57848;51.938;15.520;2023-02-15T04:59:17;0.05;92.24
70421;SHT31;57848;51.938;15.520;2023-02-15T05:01:43;0.01;92.40
70421;SHT31;57848;51.938;15.520;2023-02-15T05:04:08;0.00;92.48
70421;SHT31;57848;51.938;15.520;2023-02-15T05:06:34;0.01;92.44
70421;SHT31;57848;51.938;15.520;2023-02-15T05:08:59;0.03;92.42
70421;SHT31;57848;51.938;15.520;2023-02-15T05:11:25;0.00;92.41
70421;SHT31;57848;51.938;15.520;2023-02-15T05:13:51;-0.06;92.49
70421;SHT31;57848;51.938;15.520;2023-02-15T05:16:16;-0.02;92.50
70421;SHT31;57848;51.938;15.520;2023-02-15T05:18:42;-0.04;92.57
70421;SHT31;57848;51.938;15.520;2023-02-15T05:21:07;-0.10;92.66
70421;SHT31;57848;51.938;15.520;2023-02-15T05:23:33;-0.06;92.72
70421;SHT31;57848;51.938;15.520;2023-02-15T05:25:58;-0.04;92.58
70421;SHT31;57848;51.938;15.520;2023-02-15T05:28:42;-0.04;92.68
70421;SHT31;57848;51.938;15.520;2023-02-15T05:31:10;-0.03;92.60
70421;SHT31;57848;51.938;15.520;2023-02-15T05:33:36;-0.04;92.60
70421;SHT31;57848;51.938;15.520;2023-02-15T05:36:02;-0.10;92.70
70421;SHT31;57848;51.938;15.520;2023-02-15T05:38:29;-0.14;92.63
70421;SHT31;57848;51.938;15.520;2023-02-15T05:40:54;-0.18;92.92
70421;SHT31;57848;51.938;15.520;2023-02-15T05:43:20;-0.13;92.90
70421;SHT31;57848;51.938;15.520;2023-02-15T05:45:51;-0.09;92.92
70421;SHT31;57848;51.938;15.520;2023-02-15T05:48:17;-0.11;92.91
70421;SHT31;57848;51.938;15.520;2023-02-15T05:50:43;-0.09;92.85
70421;SHT31;57848;51.938;15.520;2023-02-15T05:53:09;-0.11;93.01
70421;SHT31;57848;51.938;15.520;2023-02-15T05:55:38;-0.10;92.74
70421;SHT31;57848;51.938;15.520;2023-02-15T05:58:04;-0.10;92.69
70421;SHT31;57848;51.938;15.520;2023-02-15T06:00:29;-0.16;92.74
70421;SHT31;57848;51.938;15.520;2023-02-15T06:02:54;-0.17;92.70
70421;SHT31;57848;51.938;15.520;2023-02-15T06:05:20;-0.21;92.71
70421;SHT31;57848;51.938;15.520;2023-02-15T06:07:45;-0.26;92.79
70421;SHT31;57848;51.938;15.520;2023-02-15T06:10:11;-0.27;93.02
70421;SHT31;57848;51.938;15.520;2023-02-15T06:12:36;-0.27;93.14
70421;SHT31;57848;51.938;15.520;2023-02-15T06:15:03;-0.27;93.22
70421;SHT31;57848;51.938;15.520;2023-02-15T06:17:28;-0.24;93.08
70421;SHT31;57848;51.938;15.520;2023-02-15T06:19:53;-0.27;93.19
70421;SHT31;57848;51.938;15.520;2023-02-15T06:22:19;-0.26;93.15
70421;SHT31;57848;51.938;15.520;2023-02-15T06:24:45;-0.27;93.23
70421;SHT31;57848;51.938;15.520;2023-02-15T06:27:11;-0.23;93.18
70421;SHT31;57848;51.938;15.520;2023-02-15T06:29:36;-0.24;93.15
70421;SHT31;57848;51.938;15.520;2023-02-15T06:32:02;-0.27;93.28
70421;SHT31;57848;51.938;15.520;2023-02-15T06:34:27;-0.27;93.31
70421;SHT31;57848;51.938;15.520;2023-02-15T06:36:53;-0.20;93.26
70421;SHT31;57848;51.938;15.520;2023-02-15T06:39:18;-0.30;93.29
70421;SHT31;57848;51.938;15.520;2023-02-15T06:41:43;-0.26;93.33
70421;SHT31;57848;51.938;15.520;2023-02-15T06:44:09;-0.24;93.09
70421;SHT31;57848;51.938;15.520;2023-02-15T06:46:34;-0.28;93.38
70421;SHT31;57848;51.938;15.520;2023-02-15T06:48:59;-0.27;93.36
70421;SHT31;57848;51.938;15.520;2023-02-15T06:51:25;-0.27;93.31
70421;SHT31;57848;51.938;15.520;2023-02-15T06:53:50;-0.26;93.18
70421;SHT31;57848;51.938;15.520;2023-02-15T06:56:16;-0.27;93.38
70421;SHT31;57848;51.938;15.520;2023-02-15T06:58:42;-0.28;93.38
70421;SHT31;57848;51.938;15.520;2023-02-15T07:01:08;-0.28;93.43
70421;SHT31;57848;51.938;15.520;2023-02-15T07:03:35;-0.30;93.45
70421;SHT31;57848;51.938;15.520;2023-02-15T07:06:02;-0.23;93.26
70421;SHT31;57848;51.938;15.520;2023-02-15T07:08:28;-0.28;93.22
70421;SHT31;57848;51.938;15.520;2023-02-15T07:10:55;-0.28;93.23
70421;SHT31;57848;51.938;15.520;2023-02-15T07:13:41;-0.24;93.10
70421;SHT31;57848;51.938;15.520;2023-02-15T07:16:08;-0.24;93.09
70421;SHT31;57848;51.938;15.520;2023-02-15T07:18:33;-0.14;92.92
70421;SHT31;57848;51.938;15.520;2023-02-15T07:20:59;-0.18;92.68
70421;SHT31;57848;51.938;15.520;2023-02-15T07:23:24;-0.17;92.75
70421;SHT31;57848;51.938;15.520;2023-02-15T07:25:59;-0.20;92.80
70421;SHT31;57848;51.938;15.520;2023-02-15T07:28:25;-0.26;93.09
70421;SHT31;57848;51.938;15.520;2023-02-15T07:30:50;-0.18;93.16
70421;SHT31;57848;51.938;15.520;2023-02-15T07:33:16;-0.14;93.18
70421;SHT31;57848;51.938;15.520;2023-02-15T07:35:59;-0.03;93.29
70421;SHT31;57848;51.938;15.520;2023-02-15T07:38:27;0.05;93.22
70421;SHT31;57848;51.938;15.520;2023-02-15T07:40:58;0.10;93.36
70421;SHT31;57848;51.938;15.520;2023-02-15T07:43:24;0.18;93.42
70421;SHT31;57848;51.938;15.520;2023-02-15T07:45:50;0.29;93.11
70421;SHT31;57848;51.938;15.520;2023-02-15T07:48:15;0.29;92.89
70421;SHT31;57848;51.938;15.520;2023-02-15T07:50:40;0.40;92.65
70421;SHT31;57848;51.938;15.520;2023-02-15T07:53:06;0.45;92.58
70421;SHT31;57848;51.938;15.520;2023-02-15T07:55:31;0.52;92.43
70421;SHT31;57848;51.938;15.520;2023-02-15T07:57:56;0.55;92.36
70421;SHT31;57848;51.938;15.520;2023-02-15T08:00:22;0.64;92.14
70421;SHT31;57848;51.938;15.520;2023-02-15T08:02:54;0.76;92.10
70421;SHT31;57848;51.938;15.520;2023-02-15T08:05:42;0.82;91.81
70421;SHT31;57848;51.938;15.520;2023-02-15T08:08:09;0.89;91.52
70421;SHT31;57848;51.938;15.520;2023-02-15T08:13:48;1.08;91.03
70421;SHT31;57848;51.938;15.520;2023-02-15T08:16:31;1.12;90.75
70421;SHT31;57848;51.938;15.520;2023-02-15T08:18:58;1.24;90.52
70421;SHT31;57848;51.938;15.520;2023-02-15T08:21:26;1.30;90.25
70421;SHT31;57848;51.938;15.520;2023-02-15T08:23:52;1.40;90.07
70421;SHT31;57848;51.938;15.520;2023-02-15T08:26:17;1.44;90.15
70421;SHT31;57848;51.938;15.520;2023-02-15T08:28:43;1.50;89.94
70421;SHT31;57848;51.938;15.520;2023-02-15T08:31:11;1.62;89.55
70421;SHT31;57848;51.938;15.520;2023-02-15T08:33:38;1.69;89.53
70421;SHT31;57848;51.938;15.520;2023-02-15T08:36:05;1.72;89.45
70421;SHT31;57848;51.938;15.520;2023-02-15T08:38:31;1.81;89.14
70421;SHT31;57848;51.938;15.520;2023-02-15T08:40:57;1.87;88.63
70421;SHT31;57848;51.938;15.520;2023-02-15T08:43:23;1.91;88.69
70421;SHT31;57848;51.938;15.520;2023-02-15T08:45:48;2.01;88.36
70421;SHT31;57848;51.938;15.520;2023-02-15T08:48:13;2.01;88.15
70421;SHT31;57848;51.938;15.520;2023-02-15T08:50:39;2.09;88.25
70421;SHT31;57848;51.938;15.520;2023-02-15T08:53:04;2.12;87.99
70421;SHT31;57848;51.938;15.520;2023-02-15T08:55:30;2.19;87.71
70421;SHT31;57848;51.938;15.520;2023-02-15T08:57:55;2.22;87.59
70421;SHT31;57848;51.938;15.520;2023-02-15T09:00:21;2.24;87.45
70421;SHT31;57848;51.938;15.520;2023-02-15T09:02:48;2.29;87.53
70421;SHT31;57848;51.938;15.520;2023-02-15T09:05:13;2.32;87.35
70421;SHT31;57848;51.938;15.520;2023-02-15T09:07:38;2.29;86.99
70421;SHT31;57848;51.938;15.520;2023-02-15T09:10:05;2.34;87.22
70421;SHT31;57848;51.938;15.520;2023-02-15T09:12:31;2.37;87.32
70421;SHT31;57848;51.938;15.520;2023-02-15T09:14:56;2.43;87.35
70421;SHT31;57848;51.938;15.520;2023-02-15T09:17:21;2.61;87.06
70421;SHT31;57848;51.938;15.520;2023-02-15T09:19:47;2.67;86.52
70421;SHT31;57848;51.938;15.520;2023-02-15T09:22:12;2.73;86.25
70421;SHT31;57848;51.938;15.520;2023-02-15T09:24:38;2.75;86.37
70421;SHT31;57848;51.938;15.520;2023-02-15T09:27:03;2.75;86.80
70421;SHT31;57848;51.938;15.520;2023-02-15T09:29:29;2.81;85.88
70421;SHT31;57848;51.938;15.520;2023-02-15T09:31:54;2.92;85.90
70421;SHT31;57848;51.938;15.520;2023-02-15T09:34:21;3.01;85.78
70421;SHT31;57848;51.938;15.520;2023-02-15T09:36:48;3.12;84.91
70421;SHT31;57848;51.938;15.520;2023-02-15T09:39:15;3.15;85.30
70421;SHT31;57848;51.938;15.520;2023-02-15T09:50:39;3.47;83.95
70421;SHT31;57848;51.938;15.520;2023-02-15T09:53:19;3.57;83.72
70421;SHT31;57848;51.938;15.520;2023-02-15T10:07:00;4.67;80.64
70421;SHT31;57848;51.938;15.520;2023-02-15T10:10:10;6.03;76.87
70421;SHT31;57848;51.938;15.520;2023-02-15T10:13:12;8.30;69.16
70421;SHT31;57848;51.938;15.520;2023-02-15T10:26:45;11.65;57.11
70421;SHT31;57848;51.938;15.520;2023-02-15T10:29:27;11.60;56.38
70421;SHT31;57848;51.938;15.520;2023-02-15T10:34:50;13.16;53.56
70421;SHT31;57848;51.938;15.520;2023-02-15T10:40:23;13.51;51.29
70421;SHT31;57848;51.938;15.520;2023-02-15T10:43:06;13.28;51.75
70421;SHT31;57848;51.938;15.520;2023-02-15T10:45:49;13.10;51.89
70421;SHT31;57848;51.938;15.520;2023-02-15T10:48:22;12.84;52.61
70421;SHT31;57848;51.938;15.520;2023-02-15T10:50:54;13.22;52.77
70421;SHT31;57848;51.938;15.520;2023-02-15T10:56:19;14.34;49.64
70421;SHT31;57848;51.938;15.520;2023-02-15T11:02:32;14.69;47.95
70421;SHT31;57848;51.938;15.520;2023-02-15T11:04:54;15.82;45.39
70421;SHT31;57848;51.938;15.520;2023-02-15T11:07:27;16.60;44.20
70421;SHT31;57848;51.938;15.520;2023-02-15T11:12:47;17.32;42.32
70421;SHT31;57848;51.938;15.520;2023-02-15T11:15:26;16.52;43.20
70421;SHT31;57848;51.938;15.520;2023-02-15T11:18:08;16.77;43.14
70421;SHT31;57848;51.938;15.520;2023-02-15T11:20:49;17.31;42.86
70421;SHT31;57848;51.938;15.520;2023-02-15T11:23:17;17.58;41.95
70421;SHT31;57848;51.938;15.520;2023-02-15T11:26:34;18.18;39.91
70421;SHT31;57848;51.938;15.520;2023-02-15T11:28:51;17.59;41.67
70421;SHT31;57848;51.938;15.520;2023-02-15T11:31:21;17.90;41.14
70421;SHT31;57848;51.938;15.520;2023-02-15T11:33:55;18.11;40.21
70421;SHT31;57848;51.938;15.520;2023-02-15T11:36:28;18.27;39.50
70421;SHT31;57848;51.938;15.520;2023-02-15T11:39:11;18.99;38.31
70421;SHT31;57848;51.938;15.520;2023-02-15T11:41:41;18.68;38.95
70421;SHT31;57848;51.938;15.520;2023-02-15T11:44:22;19.27;38.23
70421;SHT31;57848;51.938;15.520;2023-02-15T11:46:49;19.20;37.99
70421;SHT31;57848;51.938;15.520;2023-02-15T11:49:35;20.37;37.00
70421;SHT31;57848;51.938;15.520;2023-02-15T11:52:05;20.32;36.52
70421;SHT31;57848;51.938;15.520;2023-02-15T11:54:33;20.36;36.42
70421;SHT31;57848;51.938;15.520;2023-02-15T11:59:37;19.98;36.08
70421;SHT31;57848;51.938;15.520;2023-02-15T12:02:16;20.50;35.58
70421;SHT31;57848;51.938;15.520;2023-02-15T12:04:43;20.21;36.36
70421;SHT31;57848;51.938;15.520;2023-02-15T12:07:17;20.40;35.46
70421;SHT31;57848;51.938;15.520;2023-02-15T12:09:59;19.54;36.42
70421;SHT31;57848;51.938;15.520;2023-02-15T12:12:31;20.74;35.53
70421;SHT31;57848;51.938;15.520;2023-02-15T12:15:00;20.55;34.95
70421;SHT31;57848;51.938;15.520;2023-02-15T12:17:52;20.50;35.73
70421;SHT31;57848;51.938;15.520;2023-02-15T12:22:54;20.97;34.04
70421;SHT31;57848;51.938;15.520;2023-02-15T12:25:35;19.33;36.57
70421;SHT31;57848;51.938;15.520;2023-02-15T12:28:01;19.58;35.98
70421;SHT31;57848;51.938;15.520;2023-02-15T12:30:32;18.43;38.77
70421;SHT31;57848;51.938;15.520;2023-02-15T12:35:59;15.67;43.35
70421;SHT31;57848;51.938;15.520;2023-02-15T12:38:27;14.59;46.16
70421;SHT31;57848;51.938;15.520;2023-02-15T12:41:04;13.63;48.37
70421;SHT31;57848;51.938;15.520;2023-02-15T12:43:35;13.04;49.72
70421;SHT31;57848;51.938;15.520;2023-02-15T12:46:33;12.57;51.19
70421;SHT31;57848;51.938;15.520;2023-02-15T12:49:05;11.92;53.32
70421;SHT31;57848;51.938;15.520;2023-02-15T12:51:46;11.89;53.03
70421;SHT31;57848;51.938;15.520;2023-02-15T12:54:32;11.51;53.77
70421;SHT31;57848;51.938;15.520;2023-02-15T12:56:58;11.17;54.74
70421;SHT31;57848;51.938;15.520;2023-02-15T12:59:24;10.96;55.66
70421;SHT31;57848;51.938;15.520;2023-02-15T13:01:51;10.75;56.05
70421;SHT31;57848;51.938;15.520;2023-02-15T13:04:27;10.61;56.99
70421;SHT31;57848;51.938;15.520;2023-02-15T13:07:00;10.71;56.16
70421;SHT31;57848;51.938;15.520;2023-02-15T13:11:56;10.52;57.09
70421;SHT31;57848;51.938;15.520;2023-02-15T13:14:30;10.37;57.27
70421;SHT31;57848;51.938;15.520;2023-02-15T13:16:58;10.27;57.86
70421;SHT31;57848;51.938;15.520;2023-02-15T13:19:50;10.13;58.57
70421;SHT31;57848;51.938;15.520;2023-02-15T13:22:21;9.97;58.72
70421;SHT31;57848;51.938;15.520;2023-02-15T13:24:53;10.01;58.69
70421;SHT31;57848;51.938;15.520;2023-02-15T13:27:23;10.01;59.41
70421;SHT31;57848;51.938;15.520;2023-02-15T13:29:52;10.05;59.71
70421;SHT31;57848;51.938;15.520;2023-02-15T13:34:54;10.03;60.29
70421;SHT31;57848;51.938;15.520;2023-02-15T13:55:37;10.59;60.76
70421;SHT31;57848;51.938;15.520;2023-02-15T14:08:57;10.22;61.30
70421;SHT31;57848;51.938;15.520;2023-02-15T14:20:36;9.80;63.63
70421;SHT31;57848;51.938;15.520;2023-02-15T14:31:47;9.86;63.21
70421;SHT31;57848;51.938;15.520;2023-02-15T14:34:21;9.84;62.95
70421;SHT31;57848;51.938;15.520;2023-02-15T14:36:49;9.82;63.44
70421;SHT31;57848;51.938;15.520;2023-02-15T14:39:55;9.79;63.87
70421;SHT31;57848;51.938;15.520;2023-02-15T14:42:51;9.73;64.19
70421;SHT31;57848;51.938;15.520;2023-02-15T14:45:22;9.72;64.20
70421;SHT31;57848;51.938;15.520;2023-02-15T14:48:04;9.59;65.08
70421;SHT31;57848;51.938;15.520;2023-02-15T14:50:39;9.46;65.38
70421;SHT31;57848;51.938;15.520;2023-02-15T14:53:15;9.42;65.54
70421;SHT31;57848;51.938;15.520;2023-02-15T14:55:41;9.42;65.53
70421;SHT31;57848;51.938;15.520;2023-02-15T14:58:11;9.45;65.26
70421;SHT31;57848;51.938;15.520;2023-02-15T15:00:39;9.47;65.27
70421;SHT31;57848;51.938;15.520;2023-02-15T15:03:20;9.47;65.23
70421;SHT31;57848;51.938;15.520;2023-02-15T15:05:52;9.47;65.28
70421;SHT31;57848;51.938;15.520;2023-02-15T15:08:39;9.40;65.34
70421;SHT31;57848;51.938;15.520;2023-02-15T15:13:57;9.28;65.95
70421;SHT31;57848;51.938;15.520;2023-02-15T15:18:49;9.15;66.38
70421;SHT31;57848;51.938;15.520;2023-02-15T15:21:52;9.16;66.41
70421;SHT31;57848;51.938;15.520;2023-02-15T15:41:58;8.81;67.80
70421;SHT31;57848;51.938;15.520;2023-02-15T15:49:17;8.63;68.39
70421;SHT31;57848;51.938;15.520;2023-02-15T15:51:44;8.68;68.05
70421;SHT31;57848;51.938;15.520;2023-02-15T15:54:22;8.54;68.73
70421;SHT31;57848;51.938;15.520;2023-02-15T15:56:51;8.49;68.72
70421;SHT31;57848;51.938;15.520;2023-02-15T15:59:24;8.44;68.84
70421;SHT31;57848;51.938;15.520;2023-02-15T16:01:50;8.35;69.00
70421;SHT31;57848;51.938;15.520;2023-02-15T16:06:49;8.25;69.44
70421;SHT31;57848;51.938;15.520;2023-02-15T16:09:26;8.16;69.63
70421;SHT31;57848;51.938;15.520;2023-02-15T16:11:54;8.16;69.60
70421;SHT31;57848;51.938;15.520;2023-02-15T16:14:30;8.12;69.74
70421;SHT31;57848;51.938;15.520;2023-02-15T16:16:59;8.02;70.12
70421;SHT31;57848;51.938;15.520;2023-02-15T16:19:32;7.86;70.48
70421;SHT31;57848;51.938;15.520;2023-02-15T16:22:00;7.86;70.60
70421;SHT31;57848;51.938;15.520;2023-02-15T16:24:33;7.77;70.93
70421;SHT31;57848;51.938;15.520;2023-02-15T16:29:40;7.57;71.73
70421;SHT31;57848;51.938;15.520;2023-02-15T16:32:16;7.54;71.92
70421;SHT31;57848;51.938;15.520;2023-02-15T16:35:13;7.50;72.31
70421;SHT31;57848;51.938;15.520;2023-02-15T16:37:38;7.38;72.90
70421;SHT31;57848;51.938;15.520;2023-02-15T16:40:04;7.34;73.33
70421;SHT31;57848;51.938;15.520;2023-02-15T16:42:30;7.28;73.55
70421;SHT31;57848;51.938;15.520;2023-02-15T16:45:01;7.27;73.91
70421;SHT31;57848;51.938;15.520;2023-02-15T16:47:31;7.19;74.00
70421;SHT31;57848;51.938;15.520;2023-02-15T16:50:01;7.14;74.19
70421;SHT31;57848;51.938;15.520;2023-02-15T16:52:28;7.10;74.29
70421;SHT31;57848;51.938;15.520;2023-02-15T16:55:00;7.07;74.19
70421;SHT31;57848;51.938;15.520;2023-02-15T16:57:32;7.10;74.16
70421;SHT31;57848;51.938;15.520;2023-02-15T17:00:18;7.02;74.06
70421;SHT31;57848;51.938;15.520;2023-02-15T17:03:00;6.92;74.15
70421;SHT31;57848;51.938;15.520;2023-02-15T17:05:44;6.88;74.20
70421;SHT31;57848;51.938;15.520;2023-02-15T17:10:40;6.81;74.08
70421;SHT31;57848;51.938;15.520;2023-02-15T17:13:17;6.72;74.21
70421;SHT31;57848;51.938;15.520;2023-02-15T17:18:23;6.62;73.99
70421;SHT31;57848;51.938;15.520;2023-02-15T17:20:51;6.49;74.35
70421;SHT31;57848;51.938;15.520;2023-02-15T17:23:32;6.45;74.49
70421;SHT31;57848;51.938;15.520;2023-02-15T17:26:00;6.42;74.35
70421;SHT31;57848;51.938;15.520;2023-02-15T17:28:29;6.31;74.13
70421;SHT31;57848;51.938;15.520;2023-02-15T17:30:55;6.21;74.05
70421;SHT31;57848;51.938;15.520;2023-02-15T17:38:34;5.96;73.87
70421;SHT31;57848;51.938;15.520;2023-02-15T17:41:00;5.90;74.09
70421;SHT31;57848;51.938;15.520;2023-02-15T17:43:25;5.83;74.27
70421;SHT31;57848;51.938;15.520;2023-02-15T17:45:51;5.79;74.38
70421;SHT31;57848;51.938;15.520;2023-02-15T17:48:22;5.72;74.59
70421;SHT31;57848;51.938;15.520;2023-02-15T17:50:49;5.67;74.58
70421;SHT31;57848;51.938;15.520;2023-02-15T17:53:18;5.66;74.80
70421;SHT31;57848;51.938;15.520;2023-02-15T17:55:44;5.63;74.70
70421;SHT31;57848;51.938;15.520;2023-02-15T17:58:14;5.59;74.70
70421;SHT31;57848;51.938;15.520;2023-02-15T18:00:48;5.55;74.75
70421;SHT31;57848;51.938;15.520;2023-02-15T18:06:26;5.42;74.63
70421;SHT31;57848;51.938;15.520;2023-02-15T18:09:15;5.36;74.98
70421;SHT31;57848;51.938;15.520;2023-02-15T18:11:59;5.32;74.39
70421;SHT31;57848;51.938;15.520;2023-02-15T18:14:25;5.24;74.87
70421;SHT31;57848;51.938;15.520;2023-02-15T18:16:51;5.15;74.96
70421;SHT31;57848;51.938;15.520;2023-02-15T18:19:21;5.00;75.68
70421;SHT31;57848;51.938;15.520;2023-02-15T18:21:48;5.08;75.34
70421;SHT31;57848;51.938;15.520;2023-02-15T18:24:19;5.00;75.41
70421;SHT31;57848;51.938;15.520;2023-02-15T18:26:45;4.91;75.54
70421;SHT31;57848;51.938;15.520;2023-02-15T18:29:10;4.84;75.84
70421;SHT31;57848;51.938;15.520;2023-02-15T18:31:36;4.76;76.16
70421;SHT31;57848;51.938;15.520;2023-02-15T18:34:02;4.72;76.26
70421;SHT31;57848;51.938;15.520;2023-02-15T18:36:30;4.65;76.48
70421;SHT31;57848;51.938;15.520;2023-02-15T18:38:57;4.65;76.53
70421;SHT31;57848;51.938;15.520;2023-02-15T18:41:22;4.53;77.07
70421;SHT31;57848;51.938;15.520;2023-02-15T18:43:49;4.59;76.71